sensor_id;sensor_type;location;lat;lon;timestamp;P1;durP1;ratioP1;P2;durP2;ratioP2
9128;SDS011;4599;50.906;6.786;2022-08-11T00:03:13;4.47;;;2.50;;
9128;SDS011;4599;50.906;6.786;2022-08-11T00:07:16;3.43;;;2.50;;
9128;SDS011;4599;50.906;6.786;2022-08-11T00:11:19;4.33;;;2.37;;
9128;SDS011;4599;50.906;6.786;2022-08-11T00:15:22;2.60;;;2.40;;
9128;SDS011;4599;50.906;6.786;2022-08-11T00:19:26;4.67;;;2.30;;
9128;SDS011;4599;50.906;6.786;2022-08-11T00:23:52;2.83;;;2.43;;
9128;SDS011;4599;50.906;6.786;2022-08-11T00:27:55;3.57;;;2.30;;
9128;SDS011;4599;50.906;6.786;2022-08-11T00:31:57;5.03;;;2.67;;
9128;SDS011;4599;50.906;6.786;2022-08-11T00:36:03;4.37;;;2.53;;
9128;SDS011;4599;50.906;6.786;2022-08-11T00:40:07;5.20;;;2.50;;
9128;SDS011;4599;50.906;6.786;2022-08-11T00:44:22;3.10;;;2.60;;
9128;SDS011;4599;50.906;6.786;2022-08-11T00:48:38;5.00;;;2.70;;
9128;SDS011;4599;50.906;6.786;2022-08-11T00:57:17;3.00;;;2.40;;
9128;SDS011;4599;50.906;6.786;2022-08-11T01:01:44;2.63;;;2.20;;
9128;SDS011;4599;50.906;6.786;2022-08-11T01:05:58;5.63;;;2.30;;
9128;SDS011;4599;50.906;6.786;2022-08-11T01:10:20;2.60;;;2.20;;
9128;SDS011;4599;50.906;6.786;2022-08-11T01:24:29;3.60;;;2.23;;
9128;SDS011;4599;50.906;6.786;2022-08-11T01:33:56;3.10;;;2.27;;
9128;SDS011;4599;50.906;6.786;2022-08-11T01:43:10;2.77;;;2.50;;
9128;SDS011;4599;50.906;6.786;2022-08-11T01:47:31;5.93;;;2.27;;
9128;SDS011;4599;50.906;6.786;2022-08-11T01:51:42;4.53;;;2.60;;
9128;SDS011;4599;50.906;6.786;2022-08-11T01:56:03;3.50;;;2.50;;
9128;SDS011;4599;50.906;6.786;2022-08-11T02:00:15;4.80;;;2.70;;
9128;SDS011;4599;50.906;6.786;2022-08-11T02:04:23;2.70;;;2.30;;
9128;SDS011;4599;50.906;6.786;2022-08-11T02:08:34;4.73;;;2.60;;
9128;SDS011;4599;50.906;6.786;2022-08-11T02:12:53;3.00;;;2.63;;
9128;SDS011;4599;50.906;6.786;2022-08-11T02:17:07;2.90;;;2.60;;
9128;SDS011;4599;50.906;6.786;2022-08-11T02:21:15;3.63;;;2.70;;
9128;SDS011;4599;50.906;6.786;2022-08-11T02:25:26;2.77;;;2.53;;
9128;SDS011;4599;50.906;6.786;2022-08-11T02:29:37;3.43;;;2.40;;
9128;SDS011;4599;50.906;6.786;2022-08-11T02:33:47;4.47;;;2.40;;
9128;SDS011;4599;50.906;6.786;2022-08-11T02:38:00;3.47;;;2.80;;
9128;SDS011;4599;50.906;6.786;2022-08-11T02:42:15;6.60;;;2.80;;
9128;SDS011;4599;50.906;6.786;2022-08-11T02:46:40;2.57;;;2.37;;
9128;SDS011;4599;50.906;6.786;2022-08-11T02:50:59;4.83;;;2.37;;
9128;SDS011;4599;50.906;6.786;2022-08-11T02:55:17;2.70;;;2.50;;
9128;SDS011;4599;50.906;6.786;2022-08-11T02:59:46;5.93;;;2.47;;
9128;SDS011;4599;50.906;6.786;2022-08-11T03:03:54;3.07;;;2.37;;
9128;SDS011;4599;50.906;6.786;2022-08-11T03:12:31;6.47;;;2.27;;
9128;SDS011;4599;50.906;6.786;2022-08-11T03:16:43;6.97;;;2.30;;
9128;SDS011;4599;50.906;6.786;2022-08-11T03:20:56;2.87;;;2.27;;
9128;SDS011;4599;50.906;6.786;2022-08-11T03:25:09;5.87;;;2.10;;
9128;SDS011;4599;50.906;6.786;2022-08-11T03:29:19;2.73;;;2.23;;
9128;SDS011;4599;50.906;6.786;2022-08-11T03:33:31;8.50;;;2.40;;
9128;SDS011;4599;50.906;6.786;2022-08-11T03:37:47;5.83;;;2.17;;
9128;SDS011;4599;50.906;6.786;2022-08-11T03:41:59;5.27;;;2.40;;
9128;SDS011;4599;50.906;6.786;2022-08-11T03:46:11;2.67;;;2.47;;
9128;SDS011;4599;50.906;6.786;2022-08-11T03:50:21;3.73;;;2.70;;
9128;SDS011;4599;50.906;6.786;2022-08-11T03:54:40;5.53;;;2.60;;
9128;SDS011;4599;50.906;6.786;2022-08-11T03:58:56;4.27;;;2.77;;
9128;SDS011;4599;50.906;6.786;2022-08-11T04:03:29;4.53;;;2.63;;
9128;SDS011;4599;50.906;6.786;2022-08-11T04:12:43;4.43;;;2.73;;
9128;SDS011;4599;50.906;6.786;2022-08-11T04:21:57;7.27;;;2.60;;
9128;SDS011;4599;50.906;6.786;2022-08-11T04:26:29;4.87;;;2.90;;
9128;SDS011;4599;50.906;6.786;2022-08-11T04:30:43;13.13;;;2.83;;
9128;SDS011;4599;50.906;6.786;2022-08-11T04:35:07;6.90;;;2.67;;
9128;SDS011;4599;50.906;6.786;2022-08-11T04:39:23;5.10;;;2.57;;
9128;SDS011;4599;50.906;6.786;2022-08-11T04:43:57;3.57;;;2.50;;
9128;SDS011;4599;50.906;6.786;2022-08-11T04:53:12;5.57;;;2.37;;
9128;SDS011;4599;50.906;6.786;2022-08-11T04:57:30;4.40;;;2.27;;
9128;SDS011;4599;50.906;6.786;2022-08-11T05:01:47;5.93;;;2.60;;
9128;SDS011;4599;50.906;6.786;2022-08-11T05:06:42;7.73;;;2.50;;
9128;SDS011;4599;50.906;6.786;2022-08-11T05:11:10;7.67;;;2.33;;
9128;SDS011;4599;50.906;6.786;2022-08-11T05:15:27;5.50;;;2.33;;
9128;SDS011;4599;50.906;6.786;2022-08-11T05:19:44;4.70;;;2.60;;
9128;SDS011;4599;50.906;6.786;2022-08-11T05:23:48;3.63;;;2.57;;
9128;SDS011;4599;50.906;6.786;2022-08-11T05:28:01;3.90;;;2.30;;
9128;SDS011;4599;50.906;6.786;2022-08-11T05:32:06;8.00;;;2.57;;
9128;SDS011;4599;50.906;6.786;2022-08-11T05:36:14;4.30;;;2.33;;
9128;SDS011;4599;50.906;6.786;2022-08-11T05:40:24;9.73;;;2.80;;
9128;SDS011;4599;50.906;6.786;2022-08-11T05:44:27;4.60;;;2.43;;
9128;SDS011;4599;50.906;6.786;2022-08-11T05:48:32;3.80;;;2.57;;
9128;SDS011;4599;50.906;6.786;2022-08-11T05:52:35;6.03;;;2.47;;
9128;SDS011;4599;50.906;6.786;2022-08-11T05:56:42;5.57;;;2.73;;
9128;SDS011;4599;50.906;6.786;2022-08-11T06:00:51;10.20;;;3.23;;
9128;SDS011;4599;50.906;6.786;2022-08-11T06:04:54;5.63;;;2.90;;
9128;SDS011;4599;50.906;6.786;2022-08-11T06:08:57;8.53;;;3.20;;
9128;SDS011;4599;50.906;6.786;2022-08-11T06:13:00;5.20;;;3.27;;
9128;SDS011;4599;50.906;6.786;2022-08-11T06:17:06;11.63;;;3.23;;
9128;SDS011;4599;50.906;6.786;2022-08-11T06:21:08;8.23;;;3.13;;
9128;SDS011;4599;50.906;6.786;2022-08-11T06:25:11;6.97;;;2.70;;
9128;SDS011;4599;50.906;6.786;2022-08-11T06:29:14;6.90;;;2.97;;
9128;SDS011;4599;50.906;6.786;2022-08-11T06:33:29;8.60;;;2.87;;
9128;SDS011;4599;50.906;6.786;2022-08-11T06:37:39;6.17;;;2.83;;
9128;SDS011;4599;50.906;6.786;2022-08-11T06:41:45;5.73;;;2.83;;
9128;SDS011;4599;50.906;6.786;2022-08-11T06:45:53;7.20;;;2.40;;
9128;SDS011;4599;50.906;6.786;2022-08-11T06:50:00;9.73;;;2.83;;
9128;SDS011;4599;50.906;6.786;2022-08-11T06:54:03;8.13;;;2.90;;
9128;SDS011;4599;50.906;6.786;2022-08-11T06:58:10;7.23;;;2.80;;
9128;SDS011;4599;50.906;6.786;2022-08-11T07:02:14;4.93;;;2.40;;
9128;SDS011;4599;50.906;6.786;2022-08-11T07:06:24;5.53;;;2.67;;
9128;SDS011;4599;50.906;6.786;2022-08-11T07:10:54;5.10;;;2.57;;
9128;SDS011;4599;50.906;6.786;2022-08-11T07:15:08;9.53;;;3.03;;
9128;SDS011;4599;50.906;6.786;2022-08-11T07:19:11;5.87;;;2.37;;
9128;SDS011;4599;50.906;6.786;2022-08-11T07:23:19;6.20;;;2.73;;
9128;SDS011;4599;50.906;6.786;2022-08-11T07:27:21;6.67;;;2.80;;
9128;SDS011;4599;50.906;6.786;2022-08-11T07:31:30;6.20;;;2.70;;
9128;SDS011;4599;50.906;6.786;2022-08-11T07:35:37;5.33;;;2.83;;
9128;SDS011;4599;50.906;6.786;2022-08-11T07:39:44;4.40;;;2.83;;
9128;SDS011;4599;50.906;6.786;2022-08-11T07:43:49;6.33;;;2.80;;
9128;SDS011;4599;50.906;6.786;2022-08-11T07:47:54;7.90;;;2.60;;
9128;SDS011;4599;50.906;6.786;2022-08-11T07:51:56;6.47;;;2.67;;
9128;SDS011;4599;50.906;6.786;2022-08-11T07:55:59;6.00;;;2.67;;
9128;SDS011;4599;50.906;6.786;2022-08-11T08:00:06;9.33;;;2.90;;
9128;SDS011;4599;50.906;6.786;2022-08-11T08:04:11;6.93;;;2.63;;
9128;SDS011;4599;50.906;6.786;2022-08-11T08:08:14;5.40;;;2.30;;
9128;SDS011;4599;50.906;6.786;2022-08-11T08:12:21;4.40;;;2.43;;
9128;SDS011;4599;50.906;6.786;2022-08-11T08:16:24;5.30;;;2.70;;
9128;SDS011;4599;50.906;6.786;2022-08-11T08:20:26;9.17;;;2.60;;
9128;SDS011;4599;50.906;6.786;2022-08-11T08:24:30;11.73;;;2.70;;
9128;SDS011;4599;50.906;6.786;2022-08-11T08:28:35;5.10;;;2.80;;
9128;SDS011;4599;50.906;6.786;2022-08-11T08:32:38;6.07;;;2.73;;
9128;SDS011;4599;50.906;6.786;2022-08-11T08:36:42;4.97;;;2.87;;
9128;SDS011;4599;50.906;6.786;2022-08-11T08:40:45;9.33;;;2.80;;
9128;SDS011;4599;50.906;6.786;2022-08-11T08:45:05;13.27;;;2.80;;
9128;SDS011;4599;50.906;6.786;2022-08-11T08:49:08;7.57;;;2.73;;
9128;SDS011;4599;50.906;6.786;2022-08-11T08:53:15;6.83;;;2.60;;
9128;SDS011;4599;50.906;6.786;2022-08-11T08:57:21;7.47;;;2.50;;
9128;SDS011;4599;50.906;6.786;2022-08-11T09:01:25;5.13;;;2.72;;
9128;SDS011;4599;50.906;6.786;2022-08-11T09:05:29;3.75;;;2.53;;
9128;SDS011;4599;50.906;6.786;2022-08-11T09:09:31;5.03;;;2.33;;
9128;SDS011;4599;50.906;6.786;2022-08-11T09:13:34;7.47;;;2.40;;
9128;SDS011;4599;50.906;6.786;2022-08-11T09:17:43;5.82;;;2.47;;
9128;SDS011;4599;50.906;6.786;2022-08-11T09:21:47;5.95;;;2.45;;
9128;SDS011;4599;50.906;6.786;2022-08-11T09:25:51;10.18;;;2.88;;
9128;SDS011;4599;50.906;6.786;2022-08-11T09:29:56;6.93;;;2.90;;
9128;SDS011;4599;50.906;6.786;2022-08-11T09:34:00;4.80;;;2.75;;
9128;SDS011;4599;50.906;6.786;2022-08-11T09:38:04;7.57;;;2.60;;
9128;SDS011;4599;50.906;6.786;2022-08-11T09:42:06;12.45;;;2.50;;
9128;SDS011;4599;50.906;6.786;2022-08-11T09:46:18;5.78;;;2.08;;
9128;SDS011;4599;50.906;6.786;2022-08-11T09:50:26;9.88;;;2.50;;
9128;SDS011;4599;50.906;6.786;2022-08-11T09:54:28;5.00;;;1.85;;
9128;SDS011;4599;50.906;6.786;2022-08-11T09:58:30;7.72;;;2.33;;
9128;SDS011;4599;50.906;6.786;2022-08-11T10:02:44;4.80;;;2.20;;
9128;SDS011;4599;50.906;6.786;2022-08-11T10:06:49;4.75;;;2.15;;
9128;SDS011;4599;50.906;6.786;2022-08-11T10:10:55;6.75;;;2.28;;
9128;SDS011;4599;50.906;6.786;2022-08-11T10:15:01;8.27;;;2.10;;
9128;SDS011;4599;50.906;6.786;2022-08-11T10:19:04;5.00;;;2.03;;
9128;SDS011;4599;50.906;6.786;2022-08-11T10:23:10;5.55;;;1.90;;
9128;SDS011;4599;50.906;6.786;2022-08-11T10:27:13;3.55;;;1.83;;
9128;SDS011;4599;50.906;6.786;2022-08-11T10:31:15;3.72;;;2.00;;
9128;SDS011;4599;50.906;6.786;2022-08-11T10:35:19;7.78;;;4.30;;
9128;SDS011;4599;50.906;6.786;2022-08-11T10:39:23;5.68;;;2.50;;
9128;SDS011;4599;50.906;6.786;2022-08-11T10:43:27;6.10;;;2.20;;
9128;SDS011;4599;50.906;6.786;2022-08-11T10:47:49;4.63;;;2.33;;
9128;SDS011;4599;50.906;6.786;2022-08-11T10:51:54;5.97;;;2.20;;
9128;SDS011;4599;50.906;6.786;2022-08-11T10:56:00;5.05;;;2.30;;
9128;SDS011;4599;50.906;6.786;2022-08-11T11:00:08;5.88;;;2.40;;
9128;SDS011;4599;50.906;6.786;2022-08-11T11:04:11;5.82;;;2.58;;
9128;SDS011;4599;50.906;6.786;2022-08-11T11:08:15;3.08;;;2.05;;
9128;SDS011;4599;50.906;6.786;2022-08-11T11:12:26;5.93;;;1.90;;
9128;SDS011;4599;50.906;6.786;2022-08-11T11:16:31;8.98;;;2.00;;
9128;SDS011;4599;50.906;6.786;2022-08-11T11:20:37;4.97;;;2.10;;
9128;SDS011;4599;50.906;6.786;2022-08-11T11:24:52;4.65;;;2.33;;
9128;SDS011;4599;50.906;6.786;2022-08-11T11:33:34;2.40;;;2.20;;
9128;SDS011;4599;50.906;6.786;2022-08-11T11:38:08;5.22;;;2.08;;
9128;SDS011;4599;50.906;6.786;2022-08-11T11:42:14;3.28;;;2.17;;
9128;SDS011;4599;50.906;6.786;2022-08-11T11:46:19;5.20;;;2.30;;
9128;SDS011;4599;50.906;6.786;2022-08-11T11:50:21;2.88;;;2.00;;
9128;SDS011;4599;50.906;6.786;2022-08-11T11:54:27;2.58;;;2.10;;
9128;SDS011;4599;50.906;6.786;2022-08-11T11:58:31;5.40;;;2.15;;
9128;SDS011;4599;50.906;6.786;2022-08-11T12:02:34;3.60;;;2.10;;
9128;SDS011;4599;50.906;6.786;2022-08-11T12:06:36;4.25;;;2.13;;
9128;SDS011;4599;50.906;6.786;2022-08-11T12:10:39;5.60;;;2.60;;
9128;SDS011;4599;50.906;6.786;2022-08-11T12:14:43;5.43;;;2.40;;
9128;SDS011;4599;50.906;6.786;2022-08-11T12:18:46;2.60;;;2.10;;
9128;SDS011;4599;50.906;6.786;2022-08-11T12:22:53;3.60;;;2.50;;
9128;SDS011;4599;50.906;6.786;2022-08-11T12:26:56;3.70;;;2.50;;
9128;SDS011;4599;50.906;6.786;2022-08-11T12:31:17;3.70;;;2.25;;
9128;SDS011;4599;50.906;6.786;2022-08-11T12:35:21;4.43;;;2.30;;
9128;SDS011;4599;50.906;6.786;2022-08-11T12:39:23;4.15;;;2.40;;
9128;SDS011;4599;50.906;6.786;2022-08-11T12:43:47;4.10;;;2.20;;
9128;SDS011;4599;50.906;6.786;2022-08-11T12:48:00;9.20;;;2.60;;
9128;SDS011;4599;50.906;6.786;2022-08-11T12:52:28;2.55;;;2.35;;
9128;SDS011;4599;50.906;6.786;2022-08-11T12:56:36;5.13;;;2.47;;
9128;SDS011;4599;50.906;6.786;2022-08-11T13:00:47;4.10;;;2.20;;
9128;SDS011;4599;50.906;6.786;2022-08-11T13:04:50;5.70;;;2.60;;
9128;SDS011;4599;50.906;6.786;2022-08-11T13:08:54;9.73;;;2.30;;
9128;SDS011;4599;50.906;6.786;2022-08-11T13:13:01;3.95;;;2.13;;
9128;SDS011;4599;50.906;6.786;2022-08-11T13:17:24;7.93;;;2.80;;
9128;SDS011;4599;50.906;6.786;2022-08-11T13:21:44;5.20;;;2.17;;
9128;SDS011;4599;50.906;6.786;2022-08-11T13:25:48;3.42;;;2.30;;
9128;SDS011;4599;50.906;6.786;2022-08-11T13:29:51;3.22;;;2.25;;
9128;SDS011;4599;50.906;6.786;2022-08-11T13:33:53;4.18;;;2.30;;
9128;SDS011;4599;50.906;6.786;2022-08-11T13:37:56;3.30;;;2.25;;
9128;SDS011;4599;50.906;6.786;2022-08-11T13:42:19;5.55;;;2.42;;
9128;SDS011;4599;50.906;6.786;2022-08-11T13:46:22;7.07;;;2.10;;
9128;SDS011;4599;50.906;6.786;2022-08-11T13:50:28;4.43;;;2.40;;
9128;SDS011;4599;50.906;6.786;2022-08-11T13:54:34;2.47;;;2.10;;
9128;SDS011;4599;50.906;6.786;2022-08-11T13:58:39;3.20;;;2.42;;
9128;SDS011;4599;50.906;6.786;2022-08-11T14:02:42;5.30;;;2.58;;
9128;SDS011;4599;50.906;6.786;2022-08-11T14:06:48;6.68;;;2.30;;
9128;SDS011;4599;50.906;6.786;2022-08-11T14:10:52;4.60;;;2.50;;
9128;SDS011;4599;50.906;6.786;2022-08-11T14:15:00;2.47;;;2.28;;
9128;SDS011;4599;50.906;6.786;2022-08-11T14:19:10;4.72;;;2.45;;
9128;SDS011;4599;50.906;6.786;2022-08-11T14:23:14;3.30;;;2.10;;
9128;SDS011;4599;50.906;6.786;2022-08-11T14:27:18;5.07;;;2.25;;
9128;SDS011;4599;50.906;6.786;2022-08-11T14:31:44;3.60;;;2.30;;
9128;SDS011;4599;50.906;6.786;2022-08-11T14:35:47;3.55;;;2.35;;
9128;SDS011;4599;50.906;6.786;2022-08-11T14:39:51;4.05;;;2.45;;
9128;SDS011;4599;50.906;6.786;2022-08-11T14:44:03;2.60;;;2.15;;
9128;SDS011;4599;50.906;6.786;2022-08-11T14:48:16;5.13;;;2.50;;
9128;SDS011;4599;50.906;6.786;2022-08-11T14:52:18;5.75;;;2.22;;
9128;SDS011;4599;50.906;6.786;2022-08-11T14:56:22;3.90;;;2.60;;
9128;SDS011;4599;50.906;6.786;2022-08-11T15:00:24;2.53;;;2.33;;
9128;SDS011;4599;50.906;6.786;2022-08-11T15:04:28;3.95;;;2.30;;
9128;SDS011;4599;50.906;6.786;2022-08-11T15:08:37;5.05;;;2.22;;
9128;SDS011;4599;50.906;6.786;2022-08-11T15:12:39;4.43;;;2.30;;
9128;SDS011;4599;50.906;6.786;2022-08-11T15:16:42;3.13;;;2.35;;
9128;SDS011;4599;50.906;6.786;2022-08-11T15:20:46;4.00;;;2.30;;
9128;SDS011;4599;50.906;6.786;2022-08-11T15:24:53;4.45;;;2.30;;
9128;SDS011;4599;50.906;6.786;2022-08-11T15:28:57;4.60;;;2.33;;
9128;SDS011;4599;50.906;6.786;2022-08-11T15:32:59;3.35;;;2.28;;
9128;SDS011;4599;50.906;6.786;2022-08-11T15:37:07;3.53;;;2.13;;
9128;SDS011;4599;50.906;6.786;2022-08-11T15:41:12;4.07;;;2.35;;
9128;SDS011;4599;50.906;6.786;2022-08-11T15:45:21;5.85;;;2.70;;
9128;SDS011;4599;50.906;6.786;2022-08-11T15:49:27;8.98;;;2.35;;
9128;SDS011;4599;50.906;6.786;2022-08-11T15:53:52;5.10;;;2.28;;
9128;SDS011;4599;50.906;6.786;2022-08-11T15:57:58;4.20;;;2.30;;
9128;SDS011;4599;50.906;6.786;2022-08-11T16:02:02;2.53;;;2.30;;
9128;SDS011;4599;50.906;6.786;2022-08-11T16:06:06;2.75;;;2.30;;
9128;SDS011;4599;50.906;6.786;2022-08-11T16:10:10;4.60;;;2.30;;
9128;SDS011;4599;50.906;6.786;2022-08-11T16:14:19;5.28;;;2.55;;
9128;SDS011;4599;50.906;6.786;2022-08-11T16:18:26;2.85;;;2.60;;
9128;SDS011;4599;50.906;6.786;2022-08-11T16:22:32;7.38;;;2.30;;
9128;SDS011;4599;50.906;6.786;2022-08-11T16:26:38;5.82;;;2.50;;
9128;SDS011;4599;50.906;6.786;2022-08-11T16:31:01;5.40;;;2.60;;
9128;SDS011;4599;50.906;6.786;2022-08-11T16:35:06;4.45;;;2.70;;
9128;SDS011;4599;50.906;6.786;2022-08-11T16:39:11;6.68;;;2.50;;
9128;SDS011;4599;50.906;6.786;2022-08-11T16:43:16;5.07;;;2.38;;
9128;SDS011;4599;50.906;6.786;2022-08-11T16:47:19;8.00;;;2.45;;
9128;SDS011;4599;50.906;6.786;2022-08-11T16:51:43;2.85;;;2.47;;
9128;SDS011;4599;50.906;6.786;2022-08-11T16:55:45;4.78;;;2.30;;
9128;SDS011;4599;50.906;6.786;2022-08-11T16:59:54;3.55;;;2.60;;
9128;SDS011;4599;50.906;6.786;2022-08-11T17:04:02;4.10;;;2.40;;
9128;SDS011;4599;50.906;6.786;2022-08-11T17:08:09;6.18;;;2.33;;
9128;SDS011;4599;50.906;6.786;2022-08-11T17:12:11;5.45;;;2.60;;
9128;SDS011;4599;50.906;6.786;2022-08-11T17:16:18;7.43;;;2.45;;
9128;SDS011;4599;50.906;6.786;2022-08-11T17:20:23;2.30;;;2.10;;
9128;SDS011;4599;50.906;6.786;2022-08-11T17:24:45;8.98;;;2.33;;
9128;SDS011;4599;50.906;6.786;2022-08-11T17:28:49;3.38;;;2.10;;
9128;SDS011;4599;50.906;6.786;2022-08-11T17:32:55;7.50;;;2.50;;
9128;SDS011;4599;50.906;6.786;2022-08-11T17:37:01;5.72;;;2.45;;
9128;SDS011;4599;50.906;6.786;2022-08-11T17:41:04;3.58;;;2.45;;
9128;SDS011;4599;50.906;6.786;2022-08-11T17:45:07;4.15;;;2.30;;
9128;SDS011;4599;50.906;6.786;2022-08-11T17:49:14;6.28;;;2.50;;
9128;SDS011;4599;50.906;6.786;2022-08-11T17:53:16;4.07;;;2.35;;
9128;SDS011;4599;50.906;6.786;2022-08-11T17:57:19;9.02;;;2.65;;
9128;SDS011;4599;50.906;6.786;2022-08-11T18:01:23;2.65;;;2.08;;
9128;SDS011;4599;50.906;6.786;2022-08-11T18:05:29;2.92;;;2.45;;
9128;SDS011;4599;50.906;6.786;2022-08-11T18:09:32;3.90;;;2.60;;
9128;SDS011;4599;50.906;6.786;2022-08-11T18:13:35;4.50;;;2.70;;
9128;SDS011;4599;50.906;6.786;2022-08-11T18:17:38;10.25;;;2.78;;
9128;SDS011;4599;50.906;6.786;2022-08-11T18:21:43;7.78;;;2.60;;
9128;SDS011;4599;50.906;6.786;2022-08-11T18:26:06;5.95;;;2.30;;
9128;SDS011;4599;50.906;6.786;2022-08-11T18:30:10;10.32;;;2.42;;
9128;SDS011;4599;50.906;6.786;2022-08-11T18:34:13;3.55;;;2.33;;
9128;SDS011;4599;50.906;6.786;2022-08-11T18:38:22;6.18;;;2.85;;
9128;SDS011;4599;50.906;6.786;2022-08-11T18:42:35;5.03;;;2.60;;
9128;SDS011;4599;50.906;6.786;2022-08-11T18:46:38;6.05;;;2.53;;
9128;SDS011;4599;50.906;6.786;2022-08-11T18:50:46;5.93;;;2.60;;
9128;SDS011;4599;50.906;6.786;2022-08-11T18:55:11;5.72;;;2.58;;
9128;SDS011;4599;50.906;6.786;2022-08-11T18:59:16;5.50;;;2.40;;
9128;SDS011;4599;50.906;6.786;2022-08-11T19:03:23;9.63;;;3.03;;
9128;SDS011;4599;50.906;6.786;2022-08-11T19:07:27;4.38;;;2.30;;
9128;SDS011;4599;50.906;6.786;2022-08-11T19:11:33;9.20;;;2.55;;
9128;SDS011;4599;50.906;6.786;2022-08-11T19:15:43;10.40;;;3.42;;
9128;SDS011;4599;50.906;6.786;2022-08-11T19:19:46;10.23;;;3.05;;
9128;SDS011;4599;50.906;6.786;2022-08-11T19:23:50;19.60;;;5.25;;
9128;SDS011;4599;50.906;6.786;2022-08-11T19:28:04;20.00;;;5.50;;
9128;SDS011;4599;50.906;6.786;2022-08-11T19:32:07;10.63;;;3.55;;
9128;SDS011;4599;50.906;6.786;2022-08-11T19:36:10;7.40;;;3.00;;
9128;SDS011;4599;50.906;6.786;2022-08-11T19:40:13;8.25;;;2.80;;
9128;SDS011;4599;50.906;6.786;2022-08-11T19:44:17;8.40;;;2.70;;
9128;SDS011;4599;50.906;6.786;2022-08-11T19:48:21;6.85;;;2.72;;
9128;SDS011;4599;50.906;6.786;2022-08-11T19:52:32;6.13;;;2.97;;
9128;SDS011;4599;50.906;6.786;2022-08-11T19:56:36;6.40;;;2.80;;
9128;SDS011;4599;50.906;6.786;2022-08-11T20:00:40;7.67;;;2.67;;
9128;SDS011;4599;50.906;6.786;2022-08-11T20:04:42;3.50;;;2.67;;
9128;SDS011;4599;50.906;6.786;2022-08-11T20:08:46;8.20;;;2.90;;
9128;SDS011;4599;50.906;6.786;2022-08-11T20:12:50;7.43;;;3.00;;
9128;SDS011;4599;50.906;6.786;2022-08-11T20:16:54;6.70;;;2.90;;
9128;SDS011;4599;50.906;6.786;2022-08-11T20:20:57;6.43;;;2.83;;
9128;SDS011;4599;50.906;6.786;2022-08-11T20:25:01;4.77;;;2.87;;
9128;SDS011;4599;50.906;6.786;2022-08-11T20:29:05;8.43;;;2.70;;
9128;SDS011;4599;50.906;6.786;2022-08-11T20:33:09;5.77;;;2.70;;
9128;SDS011;4599;50.906;6.786;2022-08-11T20:37:11;8.30;;;2.80;;
9128;SDS011;4599;50.906;6.786;2022-08-11T20:41:14;11.17;;;3.30;;
9128;SDS011;4599;50.906;6.786;2022-08-11T20:45:18;5.47;;;2.90;;
9128;SDS011;4599;50.906;6.786;2022-08-11T20:49:25;2.93;;;2.50;;
9128;SDS011;4599;50.906;6.786;2022-08-11T20:53:44;6.57;;;2.70;;
9128;SDS011;4599;50.906;6.786;2022-08-11T20:57:48;4.30;;;2.70;;
9128;SDS011;4599;50.906;6.786;2022-08-11T21:02:06;3.67;;;2.90;;
9128;SDS011;4599;50.906;6.786;2022-08-11T21:06:12;5.73;;;2.60;;
9128;SDS011;4599;50.906;6.786;2022-08-11T21:10:32;3.97;;;2.60;;
9128;SDS011;4599;50.906;6.786;2022-08-11T21:14:36;5.17;;;2.80;;
9128;SDS011;4599;50.906;6.786;2022-08-11T21:18:45;6.27;;;2.80;;
9128;SDS011;4599;50.906;6.786;2022-08-11T21:22:50;3.17;;;2.87;;
9128;SDS011;4599;50.906;6.786;2022-08-11T21:27:06;3.70;;;3.00;;
9128;SDS011;4599;50.906;6.786;2022-08-11T21:31:16;5.73;;;3.03;;
9128;SDS011;4599;50.906;6.786;2022-08-11T21:35:20;9.03;;;3.50;;
9128;SDS011;4599;50.906;6.786;2022-08-11T21:39:24;7.47;;;2.90;;
9128;SDS011;4599;50.906;6.786;2022-08-11T21:43:26;6.00;;;3.20;;
9128;SDS011;4599;50.906;6.786;2022-08-11T21:47:31;5.80;;;3.03;;
9128;SDS011;4599;50.906;6.786;2022-08-11T21:51:44;5.10;;;3.20;;
9128;SDS011;4599;50.906;6.786;2022-08-11T21:55:47;6.73;;;3.40;;
9128;SDS011;4599;50.906;6.786;2022-08-11T21:59:52;8.67;;;3.37;;
9128;SDS011;4599;50.906;6.786;2022-08-11T22:03:55;5.27;;;3.20;;
9128;SDS011;4599;50.906;6.786;2022-08-11T22:07:58;5.80;;;3.10;;
9128;SDS011;4599;50.906;6.786;2022-08-11T22:12:02;5.83;;;3.10;;
9128;SDS011;4599;50.906;6.786;2022-08-11T22:16:24;5.77;;;3.10;;
9128;SDS011;4599;50.906;6.786;2022-08-11T22:20:27;7.20;;;2.90;;
9128;SDS011;4599;50.906;6.786;2022-08-11T22:24:30;7.03;;;3.40;;
9128;SDS011;4599;50.906;6.786;2022-08-11T22:28:34;4.70;;;3.10;;
9128;SDS011;4599;50.906;6.786;2022-08-11T22:32:36;5.40;;;3.30;;
9128;SDS011;4599;50.906;6.786;2022-08-11T22:36:39;10.77;;;3.10;;
9128;SDS011;4599;50.906;6.786;2022-08-11T22:40:41;8.27;;;3.53;;
9128;SDS011;4599;50.906;6.786;2022-08-11T22:44:45;8.90;;;3.30;;
9128;SDS011;4599;50.906;6.786;2022-08-11T22:48:46;5.10;;;3.00;;
9128;SDS011;4599;50.906;6.786;2022-08-11T22:52:49;6.50;;;3.20;;
9128;SDS011;4599;50.906;6.786;2022-08-11T22:56:52;7.40;;;3.13;;
9128;SDS011;4599;50.906;6.786;2022-08-11T23:00:55;9.37;;;3.40;;
9128;SDS011;4599;50.906;6.786;2022-08-11T23:04:57;6.10;;;3.33;;
9128;SDS011;4599;50.906;6.786;2022-08-11T23:09:00;8.00;;;3.33;;
9128;SDS011;4599;50.906;6.786;2022-08-11T23:13:02;8.20;;;3.87;;
9128;SDS011;4599;50.906;6.786;2022-08-11T23:17:06;6.67;;;3.30;;
9128;SDS011;4599;50.906;6.786;2022-08-11T23:21:07;3.77;;;3.30;;
9128;SDS011;4599;50.906;6.786;2022-08-11T23:25:11;6.03;;;3.03;;
9128;SDS011;4599;50.906;6.786;2022-08-11T23:29:18;5.57;;;3.20;;
9128;SDS011;4599;50.906;6.786;2022-08-11T23:33:21;8.90;;;3.30;;
9128;SDS011;4599;50.906;6.786;2022-08-11T23:37:25;4.33;;;2.97;;
9128;SDS011;4599;50.906;6.786;2022-08-11T23:41:26;4.97;;;3.63;;
9128;SDS011;4599;50.906;6.786;2022-08-11T23:45:29;3.83;;;3.27;;
9128;SDS011;4599;50.906;6.786;2022-08-11T23:49:31;7.00;;;3.17;;
9128;SDS011;4599;50.906;6.786;2022-08-11T23:53:36;5.10;;;3.00;;
9128;SDS011;4599;50.906;6.786;2022-08-11T23:57:38;4.67;;;3.30;;
